Time;durP1;ratioP1;P1;durP2;ratioP2;P2;SDS_P1;SDS_P2;PMS_P1;PMS_P2;Temp;Humidity;BMP_temperature;BMP_pressure;BME280_temperature;BME280_humidity;BME280_pressure;Samples;Min_cycle;Max_cycle;Signal;HPM_P1;HPM_P2
2023/05/15 00:02:25;;;;;;;30.75;17.35;;;14.00;79.70;;;;;;4784828;30;20109;-93
2023/05/15 00:04:52;;;;;;;26.20;15.95;;;14.00;79.70;;;;;;4785186;30;20113;-94
2023/05/15 00:07:20;;;;;;;29.77;17.30;;;14.00;79.60;;;;;;4784841;30;20054;-94
2023/05/15 00:09:47;;;;;;;29.65;17.83;;;14.00;79.60;;;;;;4785092;30;20058;-95
2023/05/15 00:12:14;;;;;;;29.25;18.15;;;14.00;79.60;;;;;;4784862;29;20154;-95
2023/05/15 00:14:41;;;;;;;31.80;18.08;;;14.00;79.60;;;;;;4785023;30;20055;-96
2023/05/15 00:17:11;;;;;;;33.40;19.40;;;14.00;79.80;;;;;;4770507;30;20055;-95
2023/05/15 00:19:38;;;;;;;33.37;18.17;;;14.00;79.90;;;;;;4785214;30;20422;-95
2023/05/15 00:22:05;;;;;;;35.13;20.60;;;14.00;79.80;;;;;;4784679;30;20056;-95
2023/05/15 00:24:33;;;;;;;35.22;19.25;;;14.00;79.80;;;;;;4784839;30;20081;-94
2023/05/15 00:27:01;;;;;;;33.38;18.48;;;14.00;79.80;;;;;;4784747;30;20052;-95
2023/05/15 00:29:29;;;;;;;35.28;19.65;;;13.90;79.80;;;;;;4785651;30;20055;-95
2023/05/15 00:31:56;;;;;;;38.33;19.97;;;14.00;79.80;;;;;;4784908;30;20088;-95
2023/05/15 00:34:24;;;;;;;36.13;19.65;;;14.00;79.80;;;;;;4787309;29;20082;-94
2023/05/15 00:36:51;;;;;;;37.45;20.52;;;14.00;79.90;;;;;;4787925;30;20174;-95
2023/05/15 00:39:18;;;;;;;34.97;18.95;;;14.00;79.80;;;;;;4787996;30;20060;-95
2023/05/15 00:41:48;;;;;;;38.30;20.05;;;14.00;79.90;;;;;;4788006;30;20450;-95
2023/05/15 00:44:18;;;;;;;34.27;18.73;;;14.00;80.00;;;;;;4787804;30;20048;-95
2023/05/15 00:46:45;;;;;;;38.17;20.48;;;14.00;79.90;;;;;;4787638;30;20503;-94
2023/05/15 00:49:13;;;;;;;38.15;21.95;;;13.90;80.10;;;;;;4787937;30;20052;-94
2023/05/15 00:51:41;;;;;;;37.95;21.27;;;13.90;80.40;;;;;;4787618;30;20085;-95
2023/05/15 00:54:09;;;;;;;37.00;19.88;;;13.90;80.50;;;;;;4787813;30;20073;-95
2023/05/15 00:56:37;;;;;;;37.40;19.80;;;13.80;80.90;;;;;;4787731;30;20056;-95
2023/05/15 00:59:06;;;;;;;36.35;19.73;;;13.80;80.90;;;;;;4787590;30;20551;-95
2023/05/15 01:01:33;;;;;;;36.92;19.75;;;13.70;80.70;;;;;;4787768;30;20048;-95
2023/05/15 01:04:02;;;;;;;31.67;18.60;;;13.70;80.60;;;;;;4787388;30;20051;-93
2023/05/15 01:06:30;;;;;;;35.50;19.05;;;13.70;80.70;;;;;;4787657;30;20174;-94
2023/05/15 01:09:03;;;;;;;37.30;20.50;;;13.80;80.60;;;;;;4787444;30;20050;-95
2023/05/15 01:11:34;;;;;;;40.78;21.02;;;13.80;80.60;;;;;;4787239;29;20064;-94
2023/05/15 01:14:04;;;;;;;45.60;22.13;;;13.80;80.50;;;;;;4787450;30;20052;-95
2023/05/15 01:16:32;;;;;;;40.35;21.13;;;13.80;80.40;;;;;;4786968;30;20064;-94
2023/05/15 01:19:02;;;;;;;39.22;21.42;;;13.70;80.40;;;;;;4787013;30;20059;-95
2023/05/15 01:21:35;;;;;;;37.40;20.10;;;13.70;80.60;;;;;;4786650;30;20051;-95
2023/05/15 01:24:30;;;;;;;36.70;19.10;;;13.60;80.80;;;;;;4787056;30;20044;-94
2023/05/15 01:27:38;;;;;;;35.80;19.15;;;13.70;80.80;;;;;;4786588;30;20056;-94
2023/05/15 01:30:11;;;;;;;42.83;21.10;;;13.70;80.80;;;;;;4786902;30;20055;-95
2023/05/15 01:32:57;;;;;;;38.65;20.77;;;13.80;80.70;;;;;;4786800;30;20051;-94
2023/05/15 01:35:37;;;;;;;38.63;19.60;;;13.70;80.60;;;;;;4786812;30;20048;-94
2023/05/15 01:38:33;;;;;;;42.55;21.23;;;13.70;80.50;;;;;;4786652;30;20142;-94
2023/05/15 01:41:11;;;;;;;36.83;19.42;;;13.60;80.60;;;;;;4786596;30;20047;-93
2023/05/15 01:43:43;;;;;;;39.65;21.10;;;13.60;80.80;;;;;;4786635;30;20125;-94
2023/05/15 01:46:16;;;;;;;37.92;19.15;;;13.70;80.60;;;;;;4785511;30;20113;-94
2023/05/15 01:48:45;;;;;;;36.07;18.50;;;13.70;80.60;;;;;;4786716;30;20139;-94
2023/05/15 01:51:13;;;;;;;36.40;18.63;;;13.80;80.70;;;;;;4786292;30;20146;-94
2023/05/15 01:53:42;;;;;;;33.58;17.10;;;13.70;80.60;;;;;;4786290;30;20565;-94
2023/05/15 01:56:13;;;;;;;40.17;19.58;;;13.80;80.70;;;;;;4786372;30;20057;-94
2023/05/15 01:58:42;;;;;;;36.00;19.55;;;13.70;80.60;;;;;;4786269;30;20052;-94
2023/05/15 02:07:51;;;;;;;32.30;17.45;;;13.60;80.90;;;;;;4809640;29;20121;-95
2023/05/15 02:10:21;;;;;;;35.85;18.73;;;13.60;80.80;;;;;;4796271;29;20141;-95
2023/05/15 02:12:53;;;;;;;34.03;18.42;;;13.70;80.80;;;;;;4811118;29;20489;-94
2023/05/15 02:15:22;;;;;;;32.97;18.33;;;13.60;80.80;;;;;;4810833;29;20047;-95
2023/05/15 02:17:53;;;;;;;39.08;18.48;;;13.70;80.70;;;;;;4810912;29;20081;-95
2023/05/15 02:20:28;;;;;;;40.33;19.60;;;13.70;80.80;;;;;;4810759;29;20046;-96
2023/05/15 02:22:57;;;;;;;38.25;19.60;;;13.70;81.00;;;;;;4810446;29;20141;-94
2023/05/15 02:25:41;;;;;;;37.70;18.70;;;13.60;81.00;;;;;;4810688;29;20050;-95
2023/05/15 02:28:21;;;;;;;33.30;18.13;;;13.50;81.30;;;;;;4810443;29;20099;-94
2023/05/15 02:31:00;;;;;;;35.22;18.08;;;13.50;81.30;;;;;;4810534;29;20053;-95
2023/05/15 02:33:54;;;;;;;32.97;17.98;;;13.60;81.30;;;;;;4810458;29;20056;-95
2023/05/15 02:36:29;;;;;;;32.55;17.50;;;13.60;81.20;;;;;;4816159;29;20052;-93
2023/05/15 02:38:59;;;;;;;33.65;16.83;;;13.70;81.20;;;;;;4829498;29;20064;-94
2023/05/15 02:41:28;;;;;;;38.37;18.63;;;13.60;81.20;;;;;;4829225;29;20489;-93
2023/05/15 02:43:59;;;;;;;33.50;18.05;;;13.70;81.10;;;;;;4828399;29;20049;-93
2023/05/15 02:46:27;;;;;;;34.40;18.42;;;13.70;81.10;;;;;;4828392;29;20054;-95
2023/05/15 02:48:54;;;;;;;33.65;17.90;;;13.60;81.00;;;;;;4828741;29;20053;-94
2023/05/15 02:51:22;;;;;;;32.15;17.83;;;13.70;80.80;;;;;;4828399;29;20144;-95
2023/05/15 02:53:50;;;;;;;35.93;18.53;;;13.70;80.80;;;;;;4813187;29;20042;-94
2023/05/15 02:56:18;;;;;;;35.00;18.80;;;13.70;80.80;;;;;;4827942;29;20078;-94
2023/05/15 02:58:45;;;;;;;36.17;18.88;;;13.80;80.70;;;;;;4828539;29;20053;-94
2023/05/15 03:01:12;;;;;;;35.35;17.90;;;13.90;80.70;;;;;;4812950;29;20045;-94
2023/05/15 03:03:39;;;;;;;33.00;18.15;;;13.80;80.60;;;;;;4828412;29;20096;-94
2023/05/15 03:06:07;;;;;;;33.03;17.93;;;13.80;80.40;;;;;;4828205;29;20146;-94
2023/05/15 03:08:34;;;;;;;38.33;18.98;;;13.70;80.60;;;;;;4813271;29;20050;-94
2023/05/15 03:11:01;;;;;;;34.00;17.50;;;13.70;80.60;;;;;;4813212;29;20046;-94
2023/05/15 03:13:28;;;;;;;33.45;17.67;;;13.70;80.60;;;;;;4812745;29;20070;-94
2023/05/15 03:15:55;;;;;;;35.97;17.92;;;13.70;80.70;;;;;;4812813;29;20053;-94
2023/05/15 03:18:23;;;;;;;35.40;18.30;;;13.70;80.80;;;;;;4828193;29;20050;-95
2023/05/15 03:20:51;;;;;;;36.85;18.83;;;13.70;80.90;;;;;;4828000;29;20428;-96
2023/05/15 03:23:19;;;;;;;32.67;17.67;;;13.70;80.70;;;;;;4812550;29;20133;-95
2023/05/15 03:25:46;;;;;;;38.33;18.45;;;13.70;80.70;;;;;;4828693;29;20046;-94
2023/05/15 03:28:16;;;;;;;35.45;18.20;;;13.70;80.50;;;;;;4828052;29;20071;-95
2023/05/15 03:30:46;;;;;;;34.57;17.73;;;13.60;80.50;;;;;;4812935;29;20140;-94
2023/05/15 03:33:13;;;;;;;36.53;18.58;;;13.70;80.40;;;;;;4812894;29;20054;-94
2023/05/15 03:35:40;;;;;;;30.90;16.25;;;13.70;80.40;;;;;;4812918;29;20061;-95
2023/05/15 03:38:07;;;;;;;35.85;18.75;;;13.70;80.30;;;;;;4827890;29;20045;-95
2023/05/15 03:40:38;;;;;;;33.08;18.95;;;13.70;80.30;;;;;;4812577;29;20058;-94
2023/05/15 03:43:05;;;;;;;36.87;18.60;;;13.70;80.30;;;;;;4812651;29;20070;-94
2023/05/15 03:45:34;;;;;;;33.80;16.92;;;13.60;80.50;;;;;;4827662;29;20080;-95
2023/05/15 03:48:01;;;;;;;40.35;19.05;;;13.50;80.60;;;;;;4812581;29;20073;-93
2023/05/15 03:50:33;;;;;;;32.33;17.27;;;13.50;81.00;;;;;;4813238;29;20050;-95
2023/05/15 03:53:00;;;;;;;30.85;16.50;;;13.50;81.10;;;;;;4812729;29;20050;-95
2023/05/15 03:55:29;;;;;;;32.50;17.60;;;13.60;81.10;;;;;;4812948;29;20118;-94
2023/05/15 03:57:57;;;;;;;28.80;16.48;;;13.60;81.00;;;;;;4827628;29;20053;-94
2023/05/15 04:00:24;;;;;;;28.65;16.05;;;13.60;80.80;;;;;;4812987;29;20045;-95
2023/05/15 04:02:52;;;;;;;30.58;16.40;;;13.60;80.70;;;;;;4812610;29;20053;-96
2023/05/15 04:05:20;;;;;;;29.52;15.65;;;13.50;80.70;;;;;;4830161;29;20565;-95
2023/05/15 04:07:48;;;;;;;31.70;16.77;;;13.50;80.80;;;;;;4846615;29;20045;-94
2023/05/15 04:10:15;;;;;;;28.52;15.18;;;13.50;81.20;;;;;;4849877;29;20049;-95
2023/05/15 04:12:42;;;;;;;22.67;13.07;;;13.50;81.10;;;;;;4849105;29;20191;-94
2023/05/15 04:15:21;;;;;;;30.88;15.43;;;13.60;80.90;;;;;;4848973;29;20056;-96
2023/05/15 04:17:50;;;;;;;26.70;14.30;;;13.60;81.20;;;;;;4849661;29;20231;-96
2023/05/15 04:20:24;;;;;;;24.20;13.07;;;13.70;81.10;;;;;;4849185;29;20072;-96
2023/05/15 04:22:52;;;;;;;28.10;14.70;;;13.70;81.20;;;;;;4849263;29;20080;-95
2023/05/15 04:25:20;;;;;;;23.92;13.20;;;13.60;81.50;;;;;;4834050;29;20050;-94
2023/05/15 04:27:48;;;;;;;19.85;10.80;;;13.70;81.60;;;;;;4849122;29;20073;-95
2023/05/15 04:30:17;;;;;;;16.42;9.23;;;13.70;81.30;;;;;;4849690;29;20046;-94
2023/05/15 04:32:45;;;;;;;16.53;9.03;;;13.60;80.90;;;;;;4849158;29;20109;-94
2023/05/15 04:35:13;;;;;;;17.10;9.07;;;13.60;80.90;;;;;;4848969;29;20066;-94
2023/05/15 04:37:42;;;;;;;15.75;7.88;;;13.60;80.80;;;;;;4833581;29;20061;-95
2023/05/15 04:40:09;;;;;;;17.02;8.00;;;13.60;80.70;;;;;;4849259;29;20577;-95
2023/05/15 04:42:36;;;;;;;14.30;7.55;;;13.70;81.20;;;;;;4849751;29;20050;-95
2023/05/15 04:45:06;;;;;;;13.27;7.60;;;13.60;81.00;;;;;;4848893;29;20049;-95
2023/05/15 04:47:36;;;;;;;14.02;8.10;;;13.50;81.20;;;;;;4848906;29;20488;-95
2023/05/15 04:50:04;;;;;;;12.65;7.28;;;13.60;81.70;;;;;;4834092;29;20113;-95
2023/05/15 04:52:31;;;;;;;12.98;6.88;;;13.60;81.60;;;;;;4848787;29;20512;-94
2023/05/15 04:54:58;;;;;;;12.82;7.10;;;13.70;81.60;;;;;;4833197;29;20057;-95
2023/05/15 04:57:26;;;;;;;13.10;7.10;;;13.70;81.80;;;;;;4848700;29;20461;-95
2023/05/15 04:59:56;;;;;;;12.45;6.30;;;13.70;81.80;;;;;;4849001;29;20101;-95
2023/05/15 05:02:24;;;;;;;12.82;6.57;;;13.70;81.70;;;;;;4848483;29;20054;-95
2023/05/15 05:04:54;;;;;;;11.70;5.88;;;13.80;81.60;;;;;;4848875;29;20484;-94
2023/05/15 05:07:21;;;;;;;13.70;6.70;;;13.70;81.50;;;;;;4829971;29;20066;-93
2023/05/15 05:09:48;;;;;;;12.50;6.77;;;13.80;81.60;;;;;;4829849;29;20042;-95
2023/05/15 05:12:15;;;;;;;13.27;6.75;;;13.70;81.50;;;;;;4845997;29;20075;-93
2023/05/15 05:14:43;;;;;;;11.70;6.47;;;13.70;81.60;;;;;;4845066;29;20046;-92
2023/05/15 05:17:10;;;;;;;10.43;5.72;;;13.70;81.70;;;;;;4844946;29;20046;-92
2023/05/15 05:19:38;;;;;;;11.48;6.13;;;13.70;81.70;;;;;;4844529;29;20133;-91
2023/05/15 05:22:06;;;;;;;10.80;5.70;;;13.70;81.50;;;;;;4844551;29;20078;-92
2023/05/15 05:24:39;;;;;;;13.45;6.78;;;13.70;81.20;;;;;;4844834;29;20147;-92
2023/05/15 05:27:07;;;;;;;13.15;6.88;;;13.70;81.80;;;;;;4844955;29;20068;-91
2023/05/15 05:29:34;;;;;;;10.93;5.57;;;13.70;81.30;;;;;;4844730;29;20056;-92
2023/05/15 05:32:01;;;;;;;11.45;5.68;;;13.70;81.50;;;;;;4844864;29;20053;-93
2023/05/15 05:34:31;;;;;;;12.50;6.47;;;13.80;81.00;;;;;;4830153;29;20140;-93
2023/05/15 05:36:58;;;;;;;12.00;6.50;;;13.80;81.50;;;;;;4844648;29;20058;-93
2023/05/15 05:39:25;;;;;;;11.45;6.18;;;13.90;81.40;;;;;;4844667;29;20053;-93
2023/05/15 05:42:06;;;;;;;12.13;6.45;;;14.00;81.20;;;;;;4850568;29;20057;-94
2023/05/15 05:45:23;;;;;;;13.15;6.78;;;14.00;81.00;;;;;;4854076;29;20050;-93
2023/05/15 05:47:55;;;;;;;12.70;6.93;;;14.10;80.70;;;;;;4849008;29;20046;-92
2023/05/15 05:50:37;;;;;;;11.38;6.05;;;14.30;80.20;;;;;;4845866;29;20110;-96
2023/05/15 05:53:04;;;;;;;12.13;6.40;;;14.40;79.80;;;;;;4846313;29;20106;-95
2023/05/15 05:55:34;;;;;;;12.73;7.10;;;14.40;79.60;;;;;;4829725;29;20500;-95
2023/05/15 05:58:05;;;;;;;14.35;8.10;;;14.50;79.80;;;;;;4844665;29;20512;-95
2023/05/15 06:00:46;;;;;;;15.13;8.27;;;14.50;79.80;;;;;;4844197;29;20518;-96
2023/05/15 06:03:14;;;;;;;13.18;6.93;;;14.50;80.40;;;;;;4844454;29;20512;-95
2023/05/15 06:05:47;;;;;;;11.57;6.32;;;14.50;79.70;;;;;;4832414;29;20085;-95
2023/05/15 06:08:15;;;;;;;12.02;5.70;;;14.30;80.60;;;;;;4847447;29;20049;-96
2023/05/15 06:10:42;;;;;;;11.98;5.53;;;14.10;80.60;;;;;;4832276;29;20045;-93
2023/05/15 06:13:09;;;;;;;12.63;5.63;;;14.10;80.90;;;;;;4846760;29;20051;-91
2023/05/15 06:15:36;;;;;;;10.05;5.50;;;14.10;81.00;;;;;;4831662;29;20053;-92
2023/05/15 06:22:25;;;;;;;10.02;4.32;;;14.10;80.90;;;;;;4864061;29;20036;-95
2023/05/15 06:24:53;;;;;;;11.07;5.00;;;14.10;80.90;;;;;;4846961;29;20137;-94
2023/05/15 06:27:20;;;;;;;10.33;4.53;;;14.10;80.90;;;;;;4847471;29;20056;-93
2023/05/15 06:29:47;;;;;;;10.50;4.80;;;14.10;81.00;;;;;;4847324;29;20144;-95
2023/05/15 06:32:14;;;;;;;10.82;5.30;;;14.10;81.40;;;;;;4848162;29;20098;-92
2023/05/15 06:34:41;;;;;;;10.50;4.95;;;14.10;81.60;;;;;;4838427;29;20053;-94
2023/05/15 06:37:08;;;;;;;11.65;4.78;;;14.00;81.80;;;;;;4847340;29;20049;-94
2023/05/15 06:39:36;;;;;;;9.67;4.70;;;14.00;81.90;;;;;;4847098;29;20267;-94
2023/05/15 06:42:03;;;;;;;10.57;4.97;;;14.00;81.40;;;;;;4831735;29;20060;-94
2023/05/15 06:44:30;;;;;;;12.07;4.38;;;14.00;81.70;;;;;;4846879;29;20060;-94
2023/05/15 06:46:58;;;;;;;8.98;4.20;;;14.00;81.90;;;;;;4831812;29;20423;-94
2023/05/15 06:49:26;;;;;;;7.95;3.95;;;14.00;81.70;;;;;;4846829;29;20144;-93
2023/05/15 06:51:56;;;;;;;9.27;4.00;;;14.00;81.90;;;;;;4847246;29;20147;-94
2023/05/15 06:54:23;;;;;;;10.73;4.28;;;14.00;81.80;;;;;;4846308;29;20105;-94
2023/05/15 06:56:50;;;;;;;8.32;3.50;;;14.00;82.30;;;;;;4846610;29;20057;-94
2023/05/15 06:59:17;;;;;;;8.75;4.30;;;14.00;82.00;;;;;;4831311;29;20041;-93
2023/05/15 07:01:45;;;;;;;10.30;4.63;;;14.10;81.70;;;;;;4831000;29;20053;-94
2023/05/15 07:04:12;;;;;;;9.17;4.50;;;14.20;81.60;;;;;;4845999;29;20050;-94
2023/05/15 07:06:42;;;;;;;8.65;3.97;;;14.20;82.00;;;;;;4838109;29;20061;-94
2023/05/15 07:09:09;;;;;;;8.48;3.95;;;14.30;81.50;;;;;;4818065;29;20501;-87
2023/05/15 07:11:37;;;;;;;10.48;5.00;;;14.30;81.30;;;;;;4836130;29;20045;-87
2023/05/15 07:14:05;;;;;;;8.02;2.97;;;14.40;82.00;;;;;;4832477;29;20049;-86
2023/05/15 07:16:32;;;;;;;7.50;3.07;;;14.50;81.80;;;;;;4824245;29;20528;-87
2023/05/15 07:19:00;;;;;;;7.40;3.00;;;14.50;81.70;;;;;;4833422;29;20053;-88
2023/05/15 07:21:27;;;;;;;7.93;3.42;;;14.60;81.40;;;;;;4824988;29;20075;-87
2023/05/15 07:23:54;;;;;;;9.45;3.67;;;14.60;81.30;;;;;;4833564;29;20056;-88
2023/05/15 07:26:21;;;;;;;11.30;5.53;;;14.60;81.70;;;;;;4834978;29;20069;-88
2023/05/15 07:29:04;;;;;;;12.30;6.37;;;14.70;79.90;;;;;;4831624;29;20106;-88
2023/05/15 07:31:32;;;;;;;14.07;7.47;;;14.70;80.60;;;;;;4834579;29;20067;-87
2023/05/15 07:33:59;;;;;;;17.00;10.80;;;14.70;80.90;;;;;;4831628;29;20057;-87
2023/05/15 07:36:29;;;;;;;21.05;12.50;;;14.70;81.20;;;;;;4829777;29;20054;-90
2023/05/15 07:38:56;;;;;;;18.90;9.98;;;14.60;81.20;;;;;;4827054;29;20053;-90
2023/05/15 07:41:23;;;;;;;19.63;10.47;;;14.60;81.30;;;;;;4827285;29;20061;-89
2023/05/15 07:43:50;;;;;;;21.50;11.00;;;14.60;81.10;;;;;;4843330;29;20529;-89
2023/05/15 07:46:17;;;;;;;19.30;9.98;;;14.60;81.90;;;;;;4833647;29;20492;-89
2023/05/15 07:48:44;;;;;;;19.42;10.98;;;14.70;81.60;;;;;;4843703;29;20041;-89
2023/05/15 07:51:11;;;;;;;23.48;12.50;;;14.80;81.60;;;;;;4833974;29;20129;-89
2023/05/15 07:53:39;;;;;;;20.63;11.00;;;14.80;82.00;;;;;;4831269;29;20141;-88
2023/05/15 07:56:06;;;;;;;22.15;12.13;;;14.80;81.40;;;;;;4843038;29;20053;-88
2023/05/15 07:58:37;;;;;;;21.25;11.20;;;14.80;82.00;;;;;;4830625;29;20504;-92
2023/05/15 08:01:04;;;;;;;23.40;12.85;;;14.70;82.30;;;;;;4815600;29;20289;-93
2023/05/15 08:03:32;;;;;;;15.85;9.27;;;14.80;82.60;;;;;;4815753;29;20050;-94
2023/05/15 08:06:00;;;;;;;16.67;9.13;;;14.70;82.10;;;;;;4815384;29;20050;-92
2023/05/15 08:08:27;;;;;;;27.30;14.77;;;14.80;81.80;;;;;;4840408;29;20045;-91
2023/05/15 08:10:57;;;;;;;17.50;8.98;;;14.80;82.20;;;;;;4848786;29;20560;-92
2023/05/15 08:13:24;;;;;;;13.32;7.93;;;14.80;81.80;;;;;;4848893;29;20469;-90
2023/05/15 08:15:51;;;;;;;17.52;9.18;;;14.60;81.70;;;;;;4833475;29;20194;-90
2023/05/15 08:18:18;;;;;;;16.60;10.13;;;14.70;82.00;;;;;;4848333;29;20104;-92
2023/05/15 08:20:46;;;;;;;16.50;8.88;;;14.80;81.70;;;;;;4833665;29;20045;-92
2023/05/15 08:23:13;;;;;;;16.58;8.73;;;14.80;82.30;;;;;;4848727;29;20049;-91
2023/05/15 08:25:40;;;;;;;16.38;8.30;;;14.80;82.20;;;;;;4848593;29;20106;-91
2023/05/15 08:28:07;;;;;;;17.30;9.20;;;14.80;81.70;;;;;;4848401;29;20504;-93
2023/05/15 08:30:35;;;;;;;16.57;9.57;;;14.80;81.30;;;;;;4848862;29;20049;-91
2023/05/15 08:33:02;;;;;;;14.73;7.80;;;14.90;81.20;;;;;;4821707;29;20053;-89
2023/05/15 08:35:29;;;;;;;15.90;9.07;;;15.00;80.80;;;;;;4829639;29;20050;-90
2023/05/15 08:37:57;;;;;;;14.75;8.10;;;15.20;80.40;;;;;;4814724;29;20054;-89
2023/05/15 08:40:25;;;;;;;13.73;8.30;;;15.30;80.30;;;;;;4829596;29;20054;-91
2023/05/15 08:43:15;;;;;;;15.77;8.27;;;15.30;80.40;;;;;;4829790;29;20071;-93
2023/05/15 08:45:42;;;;;;;15.65;9.35;;;15.40;80.20;;;;;;4830486;29;20505;-92
2023/05/15 08:48:13;;;;;;;18.65;9.88;;;15.40;80.00;;;;;;4815034;29;20046;-92
2023/05/15 08:50:42;;;;;;;18.13;11.52;;;15.50;80.00;;;;;;4829418;29;20103;-93
2023/05/15 08:53:13;;;;;;;18.55;10.93;;;15.50;79.60;;;;;;4814641;29;20050;-93
2023/05/15 08:55:41;;;;;;;18.20;10.77;;;15.60;80.40;;;;;;4829296;29;20464;-93
2023/05/15 08:58:08;;;;;;;17.70;9.82;;;15.60;80.20;;;;;;4814787;29;20081;-93
2023/05/15 09:00:36;;;;;;;17.75;10.25;;;15.50;79.90;;;;;;4829703;29;20117;-93
2023/05/15 09:03:04;;;;;;;16.25;9.55;;;15.50;79.80;;;;;;4814544;29;20381;-93
2023/05/15 09:05:32;;;;;;;18.20;10.60;;;15.50;80.00;;;;;;4814723;29;20057;-92
2023/05/15 09:08:03;;;;;;;20.33;12.30;;;15.50;80.40;;;;;;4814455;29;20420;-92
2023/05/15 09:10:30;;;;;;;20.35;12.27;;;15.50;80.50;;;;;;4829807;29;20098;-92
2023/05/15 09:13:00;;;;;;;25.67;14.68;;;15.60;80.60;;;;;;4829545;29;20099;-93
2023/05/15 09:15:29;;;;;;;24.75;14.68;;;15.50;80.30;;;;;;4829343;29;20110;-92
2023/05/15 09:17:58;;;;;;;21.17;13.25;;;15.60;81.40;;;;;;4814147;29;20045;-93
2023/05/15 09:20:36;;;;;;;37.37;24.67;;;15.70;81.00;;;;;;4829519;29;20053;-92
2023/05/15 09:23:05;;;;;;;29.73;17.70;;;15.80;81.30;;;;;;4829054;29;20058;-93
2023/05/15 09:25:39;;;;;;;34.45;19.80;;;15.70;81.30;;;;;;4829000;29;20061;-93
2023/05/15 09:28:09;;;;;;;34.22;21.05;;;15.70;80.80;;;;;;4828958;29;20098;-93
2023/05/15 09:30:37;;;;;;;23.75;14.35;;;15.60;81.00;;;;;;4828969;29;20053;-93
2023/05/15 09:33:04;;;;;;;23.83;13.53;;;15.50;80.30;;;;;;4829161;29;20114;-92
2023/05/15 09:35:35;;;;;;;22.42;11.85;;;15.50;80.70;;;;;;4829108;29;20078;-93
2023/05/15 09:38:06;;;;;;;21.65;11.45;;;15.50;80.60;;;;;;4829131;29;20050;-93
2023/05/15 09:40:34;;;;;;;19.23;9.85;;;15.60;81.40;;;;;;4829223;29;20523;-93
2023/05/15 09:43:01;;;;;;;18.05;9.43;;;15.50;81.20;;;;;;4828886;29;20148;-93
2023/05/15 09:45:30;;;;;;;18.77;9.73;;;15.50;80.50;;;;;;4828897;29;20050;-93
2023/05/15 09:48:05;;;;;;;15.77;8.85;;;15.50;80.60;;;;;;4813904;29;20137;-93
2023/05/15 09:50:36;;;;;;;16.35;8.10;;;15.60;81.10;;;;;;4828953;29;20057;-93
2023/05/15 09:53:11;;;;;;;16.30;8.82;;;15.70;80.40;;;;;;4828932;29;20144;-94
2023/05/15 09:55:41;;;;;;;15.18;8.02;;;16.00;81.00;;;;;;4828569;29;20092;-93
2023/05/15 09:58:08;;;;;;;16.43;8.17;;;16.10;80.30;;;;;;4813761;29;20054;-93
2023/05/15 10:00:39;;;;;;;14.85;7.75;;;16.20;79.20;;;;;;4828654;29;20064;-93
2023/05/15 10:03:18;;;;;;;13.70;6.38;;;16.30;79.20;;;;;;4828895;29;20080;-93
2023/05/15 10:05:45;;;;;;;12.65;6.07;;;16.30;78.20;;;;;;4812551;29;20046;-94
2023/05/15 10:08:14;;;;;;;11.82;6.00;;;16.30;78.30;;;;;;4828732;29;20064;-94
2023/05/15 10:10:42;;;;;;;12.87;6.47;;;16.50;79.10;;;;;;4828634;29;20052;-94
2023/05/15 10:13:10;;;;;;;10.88;6.15;;;16.50;78.20;;;;;;4828661;29;20121;-93
2023/05/15 10:15:38;;;;;;;9.88;5.10;;;16.50;78.30;;;;;;4828525;29;20102;-94
2023/05/15 10:18:07;;;;;;;9.85;5.20;;;16.50;76.70;;;;;;4829096;29;20057;-94
2023/05/15 10:20:34;;;;;;;10.82;5.47;;;16.50;77.50;;;;;;4828879;29;20069;-94
2023/05/15 10:23:05;;;;;;;8.80;5.20;;;16.30;78.40;;;;;;4828805;29;20462;-93
2023/05/15 10:25:56;;;;;;;7.82;3.90;;;16.50;77.40;;;;;;4828349;29;20166;-93
2023/05/15 10:28:24;;;;;;;8.52;4.70;;;16.50;77.70;;;;;;4812800;29;20079;-94
2023/05/15 10:30:53;;;;;;;8.50;4.10;;;16.50;78.30;;;;;;4828321;29;20052;-93
2023/05/15 10:33:21;;;;;;;6.45;2.97;;;16.50;78.30;;;;;;4828427;29;20046;-93
2023/05/15 10:35:50;;;;;;;6.40;2.83;;;16.50;77.10;;;;;;4828435;29;20137;-93
2023/05/15 10:38:20;;;;;;;6.22;2.50;;;16.50;77.40;;;;;;4828533;29;20046;-94
2023/05/15 10:40:48;;;;;;;6.60;3.15;;;16.50;78.10;;;;;;4828267;29;20054;-95
2023/05/15 10:43:15;;;;;;;4.63;1.80;;;16.50;78.30;;;;;;4828304;29;20049;-93
2023/05/15 10:45:43;;;;;;;4.47;1.60;;;16.60;77.40;;;;;;4828417;29;20056;-93
2023/05/15 10:48:14;;;;;;;4.73;1.80;;;16.60;76.50;;;;;;4828185;29;20118;-93
2023/05/15 10:50:41;;;;;;;3.53;1.60;;;16.70;76.60;;;;;;4828124;29;20045;-93
2023/05/15 10:53:09;;;;;;;3.85;1.73;;;16.80;76.70;;;;;;4812997;29;20053;-93
2023/05/15 10:55:37;;;;;;;3.00;1.08;;;16.90;76.90;;;;;;4827817;29;20058;-93
2023/05/15 10:58:09;;;;;;;3.17;1.20;;;17.00;76.10;;;;;;4827990;29;20058;-93
2023/05/15 11:00:44;;;;;;;3.73;1.37;;;17.10;76.30;;;;;;4828241;29;20058;-94
2023/05/15 11:03:15;;;;;;;2.88;0.90;;;17.10;75.80;;;;;;4827997;29;20508;-93
2023/05/15 11:06:08;;;;;;;2.80;1.15;;;17.10;74.50;;;;;;4827593;29;20136;-92
2023/05/15 11:08:40;;;;;;;2.17;0.80;;;17.00;75.10;;;;;;4812674;29;20054;-92
2023/05/15 11:11:08;;;;;;;4.13;1.20;;;16.80;75.80;;;;;;4827696;29;20053;-92
2023/05/15 11:14:09;;;;;;;2.13;0.93;;;16.60;75.80;;;;;;4812340;29;20050;-93
2023/05/15 11:16:57;;;;;;;3.53;1.20;;;16.70;75.80;;;;;;4827276;29;20050;-93
2023/05/15 11:19:31;;;;;;;3.78;1.52;;;16.70;75.50;;;;;;4827536;29;20050;-92
2023/05/15 11:22:07;;;;;;;2.22;0.95;;;16.80;76.30;;;;;;4827755;29;20050;-92
2023/05/15 11:25:14;;;;;;;3.17;1.25;;;16.90;75.50;;;;;;4827269;29;20412;-93
2023/05/15 11:27:44;;;;;;;3.50;1.50;;;17.00;75.10;;;;;;4827274;29;20045;-92
2023/05/15 11:30:23;;;;;;;5.25;1.20;;;16.90;75.60;;;;;;4812447;29;20078;-92
2023/05/15 11:33:09;;;;;;;2.85;1.25;;;16.90;75.40;;;;;;4827024;29;20061;-93
2023/05/15 11:35:45;;;;;;;3.85;0.75;;;16.80;74.80;;;;;;4827096;29;20058;-92
2023/05/15 11:38:17;;;;;;;2.75;1.08;;;16.90;75.30;;;;;;4827161;29;20065;-93
2023/05/15 11:40:55;;;;;;;2.93;1.10;;;17.00;75.50;;;;;;4812595;29;20111;-92
2023/05/15 11:43:34;;;;;;;2.83;1.20;;;17.00;74.80;;;;;;4827212;29;20050;-93
2023/05/15 11:46:09;;;;;;;4.18;1.00;;;17.00;73.80;;;;;;4827037;29;20485;-92
2023/05/15 11:48:40;;;;;;;2.95;1.10;;;16.90;73.90;;;;;;4827146;29;20050;-94
2023/05/15 11:51:26;;;;;;;2.70;1.02;;;16.80;73.30;;;;;;4826959;29;20057;-93
2023/05/15 11:53:55;;;;;;;3.17;1.03;;;17.00;74.10;;;;;;4827256;29;20061;-92
2023/05/15 11:56:26;;;;;;;3.20;1.23;;;17.10;73.50;;;;;;4812230;29;20046;-92
2023/05/15 11:58:58;;;;;;;9.57;4.43;;;17.30;72.90;;;;;;4827069;29;20433;-93
2023/05/15 12:01:25;;;;;;;68.78;33.13;;;17.30;73.30;;;;;;4827007;29;20082;-93
2023/05/15 12:03:53;;;;;;;193.88;82.22;;;17.30;72.80;;;;;;4812036;29;20054;-93
2023/05/15 12:06:21;;;;;;;63.03;28.60;;;17.30;73.20;;;;;;4823712;29;20055;-93
2023/05/15 12:08:51;;;;;;;9.68;3.95;;;17.30;73.70;;;;;;4824161;29;20513;-92
2023/05/15 12:11:22;;;;;;;5.03;2.30;;;17.30;73.00;;;;;;4824088;29;20517;-93
2023/05/15 12:13:53;;;;;;;4.65;2.65;;;17.40;72.70;;;;;;4823769;29;20099;-93
2023/05/15 12:16:25;;;;;;;6.43;2.00;;;17.40;70.60;;;;;;4823753;29;20421;-92
2023/05/15 12:18:55;;;;;;;7.80;2.10;;;17.40;70.60;;;;;;4824045;29;20059;-92
2023/05/15 12:21:25;;;;;;;7.22;1.20;;;17.20;71.30;;;;;;4823922;29;20054;-92
2023/05/15 12:23:54;;;;;;;3.20;0.90;;;17.20;70.40;;;;;;4824649;29;20054;-93
2023/05/15 12:26:26;;;;;;;6.55;1.90;;;17.10;71.00;;;;;;4823621;29;20053;-92
2023/05/15 12:28:56;;;;;;;4.72;1.30;;;17.10;70.70;;;;;;4824603;29;20133;-92
2023/05/15 12:31:24;;;;;;;3.23;0.97;;;17.10;70.30;;;;;;4826891;29;20050;-92
2023/05/15 12:33:51;;;;;;;1.80;0.60;;;17.10;69.60;;;;;;4827364;29;20130;-92
2023/05/15 12:36:21;;;;;;;3.63;0.90;;;17.00;69.00;;;;;;4827092;29;20076;-92
2023/05/15 12:38:48;;;;;;;2.28;0.80;;;17.00;69.90;;;;;;4826909;29;20423;-92
2023/05/15 12:41:16;;;;;;;6.18;2.13;;;17.10;70.30;;;;;;4826894;29;20058;-92
2023/05/15 12:43:43;;;;;;;8.30;2.90;;;17.30;70.50;;;;;;4826553;29;20062;-92
2023/05/15 12:46:13;;;;;;;5.78;1.30;;;17.50;69.80;;;;;;4826967;29;20137;-92
2023/05/15 12:48:40;;;;;;;4.45;0.75;;;17.60;69.20;;;;;;4826839;29;20061;-92
2023/05/15 12:51:16;;;;;;;4.78;1.70;;;17.80;67.40;;;;;;4826538;29;20054;-92
2023/05/15 12:53:46;;;;;;;14.98;9.50;;;17.90;67.20;;;;;;4826493;29;20050;-92
2023/05/15 12:56:16;;;;;;;2.67;1.00;;;18.00;68.00;;;;;;4827541;29;20149;-92
2023/05/15 12:58:43;;;;;;;2.63;0.82;;;17.90;65.80;;;;;;4826401;29;20062;-92
2023/05/15 13:01:11;;;;;;;2.40;1.10;;;17.80;64.00;;;;;;4827081;29;20154;-92
2023/05/15 13:03:41;;;;;;;2.13;0.80;;;17.80;64.20;;;;;;4826444;29;20454;-93